createdAt,value
2019-05-09T00:00:03.945Z,53.20
2019-05-09T00:02:34.259Z,49.03
2019-05-09T00:05:03.591Z,56.40
2019-05-09T00:07:33.730Z,52.47
2019-05-09T00:10:04.077Z,53.00
2019-05-09T00:12:33.538Z,48.17
2019-05-09T00:15:04.417Z,50.10
2019-05-09T00:17:33.770Z,53.10
2019-05-09T00:20:04.126Z,52.50
2019-05-09T00:22:33.262Z,50.83
2019-05-09T00:25:03.309Z,51.70
2019-05-09T00:27:33.227Z,54.00
2019-05-09T00:30:03.854Z,50.60
2019-05-09T00:32:36.201Z,50.63
2019-05-09T00:35:10.113Z,56.10
2019-05-09T00:37:56.299Z,53.00
2019-05-09T00:40:24.976Z,54.00
2019-05-09T00:42:56.383Z,59.70
2019-05-09T00:45:38.540Z,54.30
2019-05-09T00:48:07.049Z,55.10
2019-05-09T00:50:35.451Z,60.60
2019-05-09T00:53:03.882Z,54.63
2019-05-09T00:55:33.253Z,56.77
2019-05-09T00:58:04.047Z,55.90
2019-05-09T01:00:33.354Z,54.17
2019-05-09T01:03:03.562Z,58.80
2019-05-09T01:05:34.176Z,56.37
2019-05-09T01:08:04.316Z,57.83
2019-05-09T01:10:34.221Z,56.50
2019-05-09T01:13:03.566Z,55.70
2019-05-09T01:15:33.450Z,60.17
2019-05-09T01:18:04.171Z,57.60
2019-05-09T01:20:33.290Z,58.70
2019-05-09T01:23:03.470Z,55.03
2019-05-09T01:25:33.550Z,55.07
2019-05-09T01:28:03.371Z,55.50
2019-05-09T01:30:33.592Z,56.10
2019-05-09T01:33:13.577Z,59.33
2019-05-09T01:35:43.413Z,55.97
2019-05-09T01:38:14.002Z,60.07
2019-05-09T01:40:43.884Z,54.23
2019-05-09T01:43:13.875Z,60.33
2019-05-09T01:45:43.199Z,59.77
2019-05-09T01:48:13.997Z,57.50
2019-05-09T01:50:43.165Z,55.90
2019-05-09T01:53:13.538Z,56.00
2019-05-09T01:56:00.608Z,57.90
2019-05-09T01:58:31.003Z,56.13
2019-05-09T02:00:59.568Z,57.60
2019-05-09T02:03:28.165Z,56.53
2019-05-09T02:05:57.568Z,55.87
2019-05-09T02:08:25.975Z,54.67
2019-05-09T02:10:54.782Z,54.67
2019-05-09T02:13:23.291Z,58.47
2019-05-09T02:16:11.075Z,55.10
2019-05-09T02:18:41.120Z,58.00
2019-05-09T02:21:11.505Z,56.07
2019-05-09T02:23:39.758Z,56.33
2019-05-09T02:26:08.193Z,55.57
2019-05-09T02:28:36.603Z,56.07
2019-05-09T02:31:05.540Z,52.00
2019-05-09T02:33:34.910Z,52.27
2019-05-09T02:36:03.490Z,54.07
2019-05-09T02:38:31.890Z,55.87
2019-05-09T02:41:00.792Z,53.30
2019-05-09T02:43:29.387Z,54.23
2019-05-09T02:46:04.886Z,56.43
2019-05-09T02:48:33.359Z,54.77
2019-05-09T02:51:01.783Z,54.83
2019-05-09T02:53:30.187Z,57.27
2019-05-09T02:55:58.781Z,54.07
2019-05-09T02:58:28.859Z,55.43
2019-05-09T03:01:01.775Z,52.40
2019-05-09T03:03:34.518Z,52.70
2019-05-09T03:06:03.003Z,52.33
2019-05-09T03:08:31.405Z,52.97
2019-05-09T03:10:59.808Z,51.27
2019-05-09T03:13:29.236Z,54.20
2019-05-09T03:15:59.399Z,51.20
2019-05-09T03:18:28.639Z,52.13
2019-05-09T03:21:04.603Z,49.93
2019-05-09T03:23:33.085Z,49.93
2019-05-09T03:26:01.483Z,51.10
2019-05-09T03:28:49.257Z,53.37
2019-05-09T03:31:19.880Z,52.13
2019-05-09T03:33:50.039Z,52.17
2019-05-09T03:36:18.440Z,53.30
2019-05-09T03:38:47.558Z,50.10
2019-05-09T03:41:17.728Z,49.90
2019-05-09T03:43:48.302Z,49.37
2019-05-09T03:46:30.509Z,50.30
2019-05-09T03:49:03.252Z,48.30
2019-05-09T03:51:31.659Z,50.50
2019-05-09T03:54:00.081Z,50.17
2019-05-09T03:56:32.613Z,50.20
2019-05-09T03:59:01.041Z,55.03
2019-05-09T04:01:29.449Z,50.20
2019-05-09T04:04:09.971Z,50.50
2019-05-09T04:06:39.076Z,52.33
2019-05-09T04:09:08.893Z,51.00
2019-05-09T04:11:38.097Z,47.77
2019-05-09T04:14:11.429Z,47.37
2019-05-09T04:16:39.836Z,47.87
2019-05-09T04:19:08.420Z,49.57
2019-05-09T04:21:51.872Z,50.57
2019-05-09T04:24:20.679Z,48.80
2019-05-09T04:26:50.723Z,49.13
2019-05-09T04:29:19.148Z,51.77
2019-05-09T04:31:48.360Z,49.10
2019-05-09T04:34:18.315Z,50.30
2019-05-09T04:36:48.389Z,53.63
2019-05-09T04:39:23.315Z,51.00
2019-05-09T04:41:48.627Z,54.73
2019-05-09T04:44:21.629Z,54.93
2019-05-09T04:46:49.156Z,54.30
2019-05-09T04:49:19.127Z,52.70
2019-05-09T04:51:48.073Z,55.57
2019-05-09T04:54:17.742Z,52.97
2019-05-09T04:56:47.437Z,55.27
2019-05-09T04:59:17.937Z,57.27
2019-05-09T05:01:53.832Z,54.67
2019-05-09T05:04:24.033Z,56.50
2019-05-09T05:06:52.436Z,55.40
2019-05-09T05:09:21.544Z,54.00
2019-05-09T05:11:50.171Z,56.30
2019-05-09T05:14:21.397Z,54.13
2019-05-09T05:16:53.280Z,59.60
2019-05-09T05:19:21.578Z,58.03
2019-05-09T05:21:49.989Z,57.27
2019-05-09T05:24:20.064Z,54.50
2019-05-09T05:26:48.589Z,56.20
2019-05-09T05:29:17.747Z,55.23
2019-05-09T05:31:47.769Z,55.30
2019-05-09T05:34:27.505Z,51.83
2019-05-09T05:36:58.103Z,55.87
2019-05-09T05:39:28.282Z,52.27
2019-05-09T05:41:57.654Z,54.90
2019-05-09T05:44:28.310Z,55.57
2019-05-09T05:47:03.598Z,54.63
2019-05-09T05:49:32.031Z,55.40
2019-05-09T05:52:00.436Z,52.40
2019-05-09T05:54:28.844Z,53.67
2019-05-09T05:56:57.977Z,52.83
2019-05-09T05:59:28.629Z,54.00
2019-05-09T06:01:58.442Z,54.83
2019-05-09T06:04:27.581Z,53.03
2019-05-09T06:06:58.677Z,54.30
2019-05-09T06:09:28.058Z,51.80
2019-05-09T06:11:57.799Z,53.27
2019-05-09T06:14:28.408Z,55.60
2019-05-09T06:16:58.770Z,53.50
2019-05-09T06:19:28.592Z,55.50
2019-05-09T06:21:57.433Z,58.27
2019-05-09T06:24:28.048Z,55.70
2019-05-09T06:26:58.400Z,54.00
2019-05-09T06:29:28.600Z,59.37
2019-05-09T06:31:58.447Z,54.53
2019-05-09T06:34:27.756Z,55.40
2019-05-09T06:36:58.497Z,54.17
2019-05-09T06:39:28.493Z,56.03
2019-05-09T06:41:57.482Z,56.53
2019-05-09T06:44:28.297Z,58.30
2019-05-09T06:47:01.599Z,53.70
2019-05-09T06:49:32.116Z,54.20
2019-05-09T06:52:00.560Z,54.30
2019-05-09T06:54:29.010Z,58.83
2019-05-09T06:56:58.442Z,54.57
2019-05-09T06:59:28.375Z,55.80
2019-05-09T07:01:58.491Z,52.53
2019-05-09T07:04:43.812Z,58.70
2019-05-09T07:07:20.116Z,53.27
2019-05-09T07:09:53.081Z,52.50
2019-05-09T07:12:21.508Z,53.43
2019-05-09T07:14:49.923Z,49.30
2019-05-09T07:17:18.771Z,53.40
2019-05-09T07:19:48.774Z,49.80
2019-05-09T07:22:19.236Z,51.27
2019-05-09T07:25:06.808Z,52.17
2019-05-09T07:27:32.889Z,54.10
2019-05-09T07:30:02.955Z,52.10
2019-05-09T07:32:38.199Z,50.50
2019-05-09T07:35:08.842Z,50.10
2019-05-09T07:37:37.944Z,53.03
2019-05-09T07:40:08.445Z,52.90
2019-05-09T07:42:39.030Z,54.97
2019-05-09T07:45:08.866Z,51.30
2019-05-09T07:47:38.759Z,52.97
2019-05-09T07:50:08.578Z,53.80
2019-05-09T07:52:38.821Z,50.97
2019-05-09T07:55:08.871Z,51.00
2019-05-09T07:57:45.687Z,52.87
2019-05-09T08:00:08.133Z,51.87
2019-05-09T08:02:38.715Z,51.17
2019-05-09T08:05:08.415Z,50.83
2019-05-09T08:07:38.125Z,51.77
2019-05-09T08:10:10.893Z,51.50
2019-05-09T08:12:38.960Z,49.93
2019-05-09T08:15:16.121Z,50.50
2019-05-09T08:17:38.099Z,51.23
2019-05-09T08:20:07.913Z,52.63
2019-05-09T08:22:41.181Z,51.63
2019-05-09T08:25:08.222Z,50.17
2019-05-09T08:27:37.825Z,51.60
2019-05-09T08:30:08.030Z,54.60
2019-05-09T08:32:37.758Z,49.30
2019-05-09T08:35:08.293Z,50.03
2019-05-09T08:37:38.820Z,48.47
2019-05-09T08:40:08.061Z,56.53
2019-05-09T08:42:37.892Z,49.97
2019-05-09T08:45:17.390Z,48.77
2019-05-09T08:47:38.064Z,50.37
2019-05-09T08:50:10.171Z,53.93
2019-05-09T08:52:38.582Z,49.97
2019-05-09T08:55:08.437Z,53.03
2019-05-09T08:57:37.625Z,58.93
2019-05-09T09:00:08.297Z,51.30
2019-05-09T09:02:37.698Z,51.17
2019-05-09T09:05:08.604Z,47.47
2019-05-09T09:07:38.011Z,50.47
2019-05-09T09:10:08.501Z,51.37
2019-05-09T09:12:38.402Z,49.70
2019-05-09T09:15:08.191Z,46.50
2019-05-09T09:17:38.525Z,50.20
2019-05-09T09:20:07.956Z,54.70
2019-05-09T09:22:37.539Z,47.07
2019-05-09T09:25:07.706Z,48.07
2019-05-09T09:27:38.064Z,47.30
2019-05-09T09:30:19.946Z,47.30
2019-05-09T09:32:38.708Z,53.37
2019-05-09T09:35:08.888Z,49.90
2019-05-09T09:37:47.596Z,46.73
2019-05-09T09:40:08.609Z,48.10
2019-05-09T09:42:39.705Z,45.47
2019-05-09T09:45:08.029Z,43.27
2019-05-09T09:47:39.622Z,45.17
2019-05-09T09:50:08.786Z,46.73
2019-05-09T09:52:38.483Z,44.53
2019-05-09T09:55:09.001Z,44.60
2019-05-09T09:57:37.852Z,46.73
2019-05-09T10:00:24.910Z,46.90
2019-05-09T10:02:53.493Z,44.67
2019-05-09T10:05:21.894Z,46.00
2019-05-09T10:07:50.322Z,44.70
2019-05-09T10:10:35.944Z,45.50
2019-05-09T10:13:05.102Z,44.30
2019-05-09T10:15:35.209Z,44.67
2019-05-09T10:18:07.380Z,43.97
2019-05-09T10:20:38.516Z,48.17
2019-05-09T10:23:13.041Z,47.70
2019-05-09T10:25:38.255Z,45.97
2019-05-09T10:28:08.710Z,44.90
2019-05-09T10:30:38.233Z,45.90
2019-05-09T10:33:09.127Z,47.90
2019-05-09T10:35:39.219Z,48.97
2019-05-09T10:38:08.681Z,45.57
2019-05-09T10:40:39.897Z,48.80
2019-05-09T10:43:35.891Z,49.03
2019-05-09T10:46:15.301Z,49.80
2019-05-09T10:48:43.015Z,48.83
2019-05-09T10:51:11.419Z,48.93
2019-05-09T10:53:39.848Z,45.57
2019-05-09T10:56:08.884Z,46.00
2019-05-09T10:58:37.541Z,48.43
2019-05-09T11:01:09.115Z,45.10
2019-05-09T11:03:37.698Z,45.10
2019-05-09T11:06:08.610Z,45.50
2019-05-09T11:08:38.080Z,43.13
2019-05-09T11:11:09.306Z,45.13
2019-05-09T11:13:38.943Z,44.47
2019-05-09T11:16:07.641Z,42.70
2019-05-09T11:18:36.414Z,43.30
2019-05-09T11:21:04.894Z,42.13
2019-05-09T11:23:33.316Z,42.40
2019-05-09T11:26:01.789Z,41.93
2019-05-09T11:28:30.191Z,41.50
2019-05-09T11:30:58.616Z,40.43
2019-05-09T11:33:27.839Z,43.67
2019-05-09T11:35:58.076Z,43.23
2019-05-09T11:38:32.680Z,41.77
2019-05-09T11:40:57.952Z,44.90
2019-05-09T11:43:26.582Z,46.30
2019-05-09T11:45:55.055Z,45.97
2019-05-09T11:48:23.454Z,45.73
2019-05-09T11:50:51.880Z,43.57
2019-05-09T11:53:20.286Z,42.97
2019-05-09T11:55:48.722Z,43.27
2019-05-09T11:58:18.109Z,44.70
2019-05-09T12:00:48.233Z,42.93
2019-05-09T12:03:18.771Z,41.23
2019-05-09T12:05:47.629Z,42.27
2019-05-09T12:08:17.748Z,44.93
2019-05-09T12:10:46.382Z,41.17
2019-05-09T12:13:14.782Z,44.23
2019-05-09T12:15:43.275Z,43.23
2019-05-09T12:18:11.884Z,43.93
2019-05-09T12:20:40.277Z,41.70
2019-05-09T12:23:08.676Z,41.20
2019-05-09T12:25:38.639Z,42.23
2019-05-09T12:28:07.801Z,39.00
2019-05-09T12:30:37.994Z,40.03
2019-05-09T12:33:08.568Z,39.73
2019-05-09T12:35:38.516Z,37.73
2019-05-09T12:38:08.386Z,39.20
2019-05-09T12:40:38.857Z,39.43
2019-05-09T12:43:09.138Z,39.70
2019-05-09T12:45:38.792Z,38.30
2019-05-09T12:48:14.643Z,37.57
2019-05-09T12:50:38.755Z,41.23
2019-05-09T12:53:07.325Z,47.23
2019-05-09T12:55:38.296Z,41.70
2019-05-09T12:58:09.743Z,39.07
2019-05-09T13:00:38.531Z,41.27
2019-05-09T13:03:08.479Z,38.87
2019-05-09T13:05:38.866Z,40.80
2019-05-09T13:08:10.470Z,38.03
2019-05-09T13:10:37.896Z,38.20
2019-05-09T13:13:08.606Z,38.30
2019-05-09T13:15:40.852Z,37.40
2019-05-09T13:18:21.336Z,39.50
2019-05-09T13:20:39.400Z,38.57
2019-05-09T13:23:08.893Z,38.50
2019-05-09T13:25:38.079Z,42.10
2019-05-09T13:28:08.309Z,42.37
2019-05-09T13:30:37.956Z,39.60
2019-05-09T13:33:10.465Z,37.63
2019-05-09T13:35:39.236Z,38.50
2019-05-09T13:38:08.680Z,38.17
2019-05-09T13:40:36.994Z,39.00
2019-05-09T13:43:05.489Z,39.47
2019-05-09T13:45:33.886Z,37.13
2019-05-09T13:48:02.405Z,37.27
2019-05-09T13:50:30.792Z,36.00
2019-05-09T13:52:59.234Z,36.70
2019-05-09T13:55:27.631Z,37.13
2019-05-09T13:57:59.259Z,36.37
2019-05-09T14:00:28.457Z,35.40
2019-05-09T14:02:56.328Z,37.07
2019-05-09T14:05:24.728Z,36.77
2019-05-09T14:07:55.254Z,38.40
2019-05-09T14:10:23.291Z,37.50
2019-05-09T14:13:05.689Z,36.17
2019-05-09T14:15:21.910Z,37.40
2019-05-09T14:17:53.727Z,37.90
2019-05-09T14:20:20.486Z,35.87
2019-05-09T14:22:49.227Z,36.70
2019-05-09T14:25:19.625Z,36.90
2019-05-09T14:27:49.750Z,36.20
2019-05-09T14:30:19.799Z,36.67
2019-05-09T14:32:49.746Z,36.83
2019-05-09T14:35:18.557Z,36.47
2019-05-09T14:37:48.758Z,36.20
2019-05-09T14:40:17.653Z,36.00
2019-05-09T14:42:46.243Z,38.33
2019-05-09T14:45:14.709Z,36.60
2019-05-09T14:47:43.201Z,36.17
2019-05-09T14:50:12.069Z,39.30
2019-05-09T14:52:40.768Z,38.10
2019-05-09T14:55:09.249Z,37.67
2019-05-09T14:57:38.363Z,37.10
2019-05-09T15:00:08.074Z,37.00
2019-05-09T15:02:38.790Z,38.17
2019-05-09T15:05:09.572Z,38.27
2019-05-09T15:07:38.936Z,37.27
2019-05-09T15:10:08.578Z,38.13
2019-05-09T15:12:39.127Z,38.83
2019-05-09T15:15:08.476Z,42.60
2019-05-09T15:17:37.434Z,37.60
2019-05-09T15:20:08.725Z,36.90
2019-05-09T15:22:38.617Z,38.00
2019-05-09T15:25:08.898Z,36.83
2019-05-09T15:27:38.547Z,39.20
2019-05-09T15:30:07.458Z,37.93
2019-05-09T15:32:37.765Z,37.40
2019-05-09T15:35:08.939Z,37.33
2019-05-09T15:37:38.575Z,37.70
2019-05-09T15:40:08.671Z,37.77
2019-05-09T15:42:38.885Z,38.20
2019-05-09T15:45:08.508Z,38.40
2019-05-09T15:47:37.855Z,37.23
2019-05-09T15:50:18.725Z,40.40
2019-05-09T15:52:40.039Z,37.87
2019-05-09T15:55:09.503Z,36.60
2019-05-09T15:57:38.200Z,37.10
2019-05-09T16:00:10.016Z,36.70
2019-05-09T16:02:39.242Z,36.77
2019-05-09T16:05:10.616Z,36.10
2019-05-09T16:07:38.188Z,37.13
2019-05-09T16:10:08.552Z,40.20
2019-05-09T16:12:38.400Z,38.13
2019-05-09T16:15:07.826Z,39.43
2019-05-09T16:17:39.232Z,41.57
2019-05-09T16:20:08.469Z,38.17
2019-05-09T16:22:39.211Z,37.00
2019-05-09T16:25:08.322Z,36.40
2019-05-09T16:27:37.931Z,38.53
2019-05-09T16:30:08.547Z,38.10
2019-05-09T16:32:37.774Z,38.83
2019-05-09T16:35:08.014Z,37.93
2019-05-09T16:37:56.783Z,37.37
2019-05-09T16:40:08.420Z,37.53
2019-05-09T16:42:38.179Z,37.80
2019-05-09T16:45:08.260Z,41.03
2019-05-09T16:47:36.725Z,38.23
2019-05-09T16:50:09.026Z,40.10
2019-05-09T16:52:40.311Z,41.03
2019-05-09T16:55:09.135Z,39.30
2019-05-09T16:57:37.814Z,37.60
2019-05-09T17:00:09.826Z,38.90
2019-05-09T17:02:38.323Z,39.40
2019-05-09T17:05:08.396Z,37.73
2019-05-09T17:07:38.374Z,38.30
2019-05-09T17:10:08.440Z,40.57
2019-05-09T17:12:36.942Z,38.97
2019-05-09T17:15:08.498Z,36.80
2019-05-09T17:17:38.576Z,39.60
2019-05-09T17:20:08.876Z,37.27
2019-05-09T17:23:08.404Z,39.10
2019-05-09T17:25:28.037Z,39.33
2019-05-09T17:27:56.927Z,36.80
2019-05-09T17:30:28.422Z,39.23
2019-05-09T17:32:58.323Z,37.17
2019-05-09T17:35:27.931Z,37.87
2019-05-09T17:37:56.538Z,37.10
2019-05-09T17:40:24.934Z,37.97
2019-05-09T17:42:53.360Z,37.70
2019-05-09T17:45:21.824Z,37.60
2019-05-09T17:47:50.226Z,38.00
2019-05-09T17:50:18.732Z,39.07
2019-05-09T17:52:48.124Z,37.50
2019-05-09T17:55:18.190Z,37.60
2019-05-09T17:57:47.933Z,37.23
2019-05-09T18:00:21.682Z,37.37
2019-05-09T18:02:48.584Z,37.00
2019-05-09T18:05:17.248Z,36.27
2019-05-09T18:07:45.646Z,36.30
2019-05-09T18:10:14.437Z,36.87
2019-05-09T18:12:42.915Z,36.70
2019-05-09T18:15:12.085Z,37.00
2019-05-09T18:17:40.480Z,36.87
2019-05-09T18:20:08.983Z,37.00
2019-05-09T18:22:37.377Z,37.50
2019-05-09T18:25:08.361Z,37.53
2019-05-09T18:27:37.869Z,37.00
2019-05-09T18:30:07.391Z,37.30
2019-05-09T18:32:38.314Z,37.87
2019-05-09T18:35:27.828Z,37.00
2019-05-09T18:37:58.726Z,37.97
2019-05-09T18:40:28.178Z,39.67
2019-05-09T18:42:58.383Z,37.70
2019-05-09T18:45:28.245Z,39.83
2019-05-09T18:47:58.069Z,38.10
2019-05-09T18:50:26.755Z,39.70
2019-05-09T18:52:55.169Z,39.60
2019-05-09T18:55:24.635Z,44.60
2019-05-09T18:57:53.275Z,38.77
2019-05-09T19:00:22.040Z,42.60
2019-05-09T19:02:50.911Z,39.90
2019-05-09T19:05:20.436Z,40.07
2019-05-09T19:07:48.848Z,41.30
2019-05-09T19:10:17.667Z,40.70
2019-05-09T19:12:46.109Z,40.77
2019-05-09T19:15:16.594Z,41.10
2019-05-09T19:17:52.745Z,41.50
2019-05-09T19:20:37.495Z,41.30
2019-05-09T19:23:06.037Z,40.33
2019-05-09T19:25:35.209Z,41.43
2019-05-09T19:28:03.985Z,40.30
2019-05-09T19:30:32.925Z,40.80
2019-05-09T19:33:01.357Z,42.10
2019-05-09T19:35:29.837Z,41.40
2019-05-09T19:37:58.265Z,41.70
2019-05-09T19:40:26.677Z,42.30
2019-05-09T19:42:55.106Z,43.13
2019-05-09T19:45:23.580Z,42.00
2019-05-09T19:47:52.075Z,43.10
2019-05-09T19:50:20.545Z,42.30
2019-05-09T19:52:48.977Z,42.10
2019-05-09T19:55:17.442Z,42.20
2019-05-09T19:57:45.878Z,41.97
2019-05-09T20:00:15.820Z,42.20
2019-05-09T20:02:44.319Z,42.27
2019-05-09T20:05:12.854Z,40.70
2019-05-09T20:07:41.285Z,43.90
2019-05-09T20:10:11.406Z,42.90
2019-05-09T20:12:41.544Z,48.50
2019-05-09T20:15:11.906Z,46.73
2019-05-09T20:17:40.341Z,43.50
2019-05-09T20:20:09.039Z,41.57
2019-05-09T20:22:50.983Z,42.30
2019-05-09T20:25:07.982Z,43.83
2019-05-09T20:27:36.433Z,45.17
2019-05-09T20:30:06.962Z,45.47
2019-05-09T20:32:35.422Z,43.17
2019-05-09T20:35:04.968Z,44.13
2019-05-09T20:37:33.555Z,41.77
2019-05-09T20:40:02.155Z,43.23
2019-05-09T20:42:30.809Z,44.30
2019-05-09T20:44:59.418Z,42.40
2019-05-09T20:47:28.008Z,42.37
2019-05-09T20:49:56.622Z,43.50
2019-05-09T20:52:25.213Z,42.60
2019-05-09T20:54:53.828Z,41.90
2019-05-09T20:57:22.418Z,42.07
2019-05-09T20:59:51.036Z,42.73
2019-05-09T21:02:19.621Z,41.70
2019-05-09T21:04:48.239Z,41.20
2019-05-09T21:07:16.828Z,42.40
2019-05-09T21:09:45.447Z,44.73
2019-05-09T21:12:14.033Z,41.50
2019-05-09T21:14:42.643Z,41.57
2019-05-09T21:17:11.230Z,44.17
2019-05-09T21:19:39.842Z,43.67
2019-05-09T21:22:08.438Z,41.73
2019-05-09T21:24:37.053Z,46.37
2019-05-09T21:27:05.636Z,41.97
2019-05-09T21:29:34.260Z,43.00
2019-05-09T21:32:02.945Z,46.20
2019-05-09T21:34:31.560Z,43.80
2019-05-09T21:36:59.962Z,43.07
2019-05-09T21:39:28.392Z,45.73
2019-05-09T21:41:56.797Z,44.10
2019-05-09T21:44:25.234Z,47.07
2019-05-09T21:46:53.637Z,45.43
2019-05-09T21:49:22.067Z,44.13
2019-05-09T21:51:50.465Z,45.37
2019-05-09T21:54:18.891Z,44.37
2019-05-09T21:56:47.296Z,45.30
2019-05-09T21:59:15.724Z,42.60
2019-05-09T22:01:44.569Z,43.30
2019-05-09T22:04:13.007Z,44.10
2019-05-09T22:06:41.487Z,42.00
2019-05-09T22:09:10.314Z,39.77
2019-05-09T22:11:38.763Z,40.80
2019-05-09T22:14:07.240Z,37.20
2019-05-09T22:16:35.742Z,41.70
2019-05-09T22:19:04.228Z,40.87
2019-05-09T22:21:32.656Z,38.67
2019-05-09T22:24:01.066Z,37.93
2019-05-09T22:26:29.560Z,38.13
2019-05-09T22:28:57.979Z,41.23
2019-05-09T22:31:26.473Z,39.93
2019-05-09T22:33:54.877Z,40.70
2019-05-09T22:36:23.310Z,39.80
2019-05-09T22:38:51.713Z,41.87
2019-05-09T22:41:20.141Z,41.13
2019-05-09T22:43:48.542Z,40.70
2019-05-09T22:46:16.972Z,41.10
2019-05-09T22:48:45.376Z,47.20
2019-05-09T22:51:13.804Z,40.70
2019-05-09T22:53:42.277Z,41.47
2019-05-09T22:56:10.814Z,45.13
2019-05-09T22:58:39.651Z,41.10
2019-05-09T23:01:08.084Z,42.50
2019-05-09T23:03:36.486Z,42.23
2019-05-09T23:06:05.016Z,42.07
2019-05-09T23:08:33.464Z,46.60
2019-05-09T23:11:01.912Z,41.40
2019-05-09T23:13:31.958Z,41.77
2019-05-09T23:16:00.365Z,41.23
2019-05-09T23:18:28.805Z,41.83
2019-05-09T23:20:57.553Z,42.13
2019-05-09T23:23:30.385Z,41.57
2019-05-09T23:25:59.065Z,45.97
2019-05-09T23:28:28.019Z,43.17
2019-05-09T23:31:00.741Z,42.87
2019-05-09T23:33:30.833Z,40.90
2019-05-09T23:35:59.259Z,45.13
2019-05-09T23:38:27.764Z,42.43
2019-05-09T23:40:56.215Z,46.97
2019-05-09T23:43:24.671Z,41.87
2019-05-09T23:45:53.165Z,42.03
2019-05-09T23:48:21.716Z,42.97
2019-05-09T23:50:50.101Z,43.40
2019-05-09T23:53:23.371Z,44.07
2019-05-09T23:56:09.501Z,41.70
2019-05-09T23:58:55.698Z,43.60
